sensor_id;sensor_type;location;lat;lon;timestamp;P1;durP1;ratioP1;P2;durP2;ratioP2
82783;SDS011;72520;55.762;37.780;2023-11-19T00:02:16;11.90;;;5.43;;
82783;SDS011;72520;55.762;37.780;2023-11-19T00:05:26;22.50;;;5.30;;
82783;SDS011;72520;55.762;37.780;2023-11-19T00:08:29;13.43;;;4.57;;
82783;SDS011;72520;55.762;37.780;2023-11-19T00:11:32;11.82;;;4.85;;
82783;SDS011;72520;55.762;37.780;2023-11-19T00:14:36;14.27;;;5.25;;
82783;SDS011;72520;55.762;37.780;2023-11-19T00:17:38;15.75;;;6.30;;
82783;SDS011;72520;55.762;37.780;2023-11-19T00:20:45;10.45;;;5.03;;
82783;SDS011;72520;55.762;37.780;2023-11-19T00:23:48;11.98;;;4.75;;
82783;SDS011;72520;55.762;37.780;2023-11-19T00:26:50;10.73;;;5.22;;
82783;SDS011;72520;55.762;37.780;2023-11-19T00:29:54;10.02;;;4.63;;
82783;SDS011;72520;55.762;37.780;2023-11-19T00:35:59;17.83;;;5.35;;
82783;SDS011;72520;55.762;37.780;2023-11-19T00:39:04;20.13;;;5.68;;
82783;SDS011;72520;55.762;37.780;2023-11-19T00:42:07;15.27;;;5.65;;
82783;SDS011;72520;55.762;37.780;2023-11-19T00:45:12;16.20;;;6.00;;
82783;SDS011;72520;55.762;37.780;2023-11-19T00:48:15;14.13;;;5.95;;
82783;SDS011;72520;55.762;37.780;2023-11-19T00:51:17;11.57;;;5.75;;
82783;SDS011;72520;55.762;37.780;2023-11-19T00:54:20;17.40;;;6.05;;
82783;SDS011;72520;55.762;37.780;2023-11-19T00:57:26;18.50;;;5.55;;
82783;SDS011;72520;55.762;37.780;2023-11-19T01:00:30;13.57;;;5.07;;
82783;SDS011;72520;55.762;37.780;2023-11-19T01:03:33;12.52;;;5.68;;
82783;SDS011;72520;55.762;37.780;2023-11-19T01:06:35;13.80;;;5.68;;
82783;SDS011;72520;55.762;37.780;2023-11-19T01:09:38;10.20;;;5.28;;
82783;SDS011;72520;55.762;37.780;2023-11-19T01:12:41;21.48;;;7.43;;
82783;SDS011;72520;55.762;37.780;2023-11-19T01:15:45;13.02;;;5.50;;
82783;SDS011;72520;55.762;37.780;2023-11-19T01:18:48;13.65;;;5.18;;
82783;SDS011;72520;55.762;37.780;2023-11-19T01:21:51;14.85;;;6.38;;
82783;SDS011;72520;55.762;37.780;2023-11-19T01:24:54;13.45;;;5.20;;
82783;SDS011;72520;55.762;37.780;2023-11-19T01:27:56;17.30;;;5.35;;
82783;SDS011;72520;55.762;37.780;2023-11-19T01:31:03;16.15;;;5.07;;
82783;SDS011;72520;55.762;37.780;2023-11-19T01:34:06;16.90;;;6.75;;
82783;SDS011;72520;55.762;37.780;2023-11-19T01:37:09;20.65;;;6.65;;
82783;SDS011;72520;55.762;37.780;2023-11-19T01:40:13;13.48;;;6.80;;
82783;SDS011;72520;55.762;37.780;2023-11-19T01:43:30;18.45;;;6.70;;
82783;SDS011;72520;55.762;37.780;2023-11-19T01:46:36;14.27;;;6.05;;
82783;SDS011;72520;55.762;37.780;2023-11-19T01:49:41;19.08;;;5.90;;
82783;SDS011;72520;55.762;37.780;2023-11-19T01:52:43;14.40;;;5.35;;
82783;SDS011;72520;55.762;37.780;2023-11-19T01:55:46;23.02;;;6.30;;
82783;SDS011;72520;55.762;37.780;2023-11-19T01:58:51;14.82;;;5.90;;
82783;SDS011;72520;55.762;37.780;2023-11-19T02:01:56;15.85;;;5.72;;
82783;SDS011;72520;55.762;37.780;2023-11-19T02:04:59;19.88;;;6.53;;
82783;SDS011;72520;55.762;37.780;2023-11-19T02:08:04;15.25;;;6.05;;
82783;SDS011;72520;55.762;37.780;2023-11-19T02:11:07;17.50;;;6.72;;
82783;SDS011;72520;55.762;37.780;2023-11-19T02:14:10;16.20;;;6.03;;
82783;SDS011;72520;55.762;37.780;2023-11-19T02:17:26;16.42;;;6.25;;
82783;SDS011;72520;55.762;37.780;2023-11-19T02:20:29;13.10;;;5.03;;
82783;SDS011;72520;55.762;37.780;2023-11-19T02:23:32;15.90;;;6.22;;
82783;SDS011;72520;55.762;37.780;2023-11-19T02:26:37;16.77;;;6.45;;
82783;SDS011;72520;55.762;37.780;2023-11-19T02:29:43;14.05;;;5.03;;
82783;SDS011;72520;55.762;37.780;2023-11-19T02:32:45;14.88;;;6.32;;
82783;SDS011;72520;55.762;37.780;2023-11-19T02:35:48;17.30;;;6.60;;
82783;SDS011;72520;55.762;37.780;2023-11-19T02:38:51;15.40;;;5.60;;
82783;SDS011;72520;55.762;37.780;2023-11-19T02:41:54;17.33;;;6.72;;
82783;SDS011;72520;55.762;37.780;2023-11-19T02:44:58;16.98;;;6.43;;
82783;SDS011;72520;55.762;37.780;2023-11-19T02:48:01;17.27;;;6.13;;
82783;SDS011;72520;55.762;37.780;2023-11-19T02:51:04;19.20;;;6.68;;
82783;SDS011;72520;55.762;37.780;2023-11-19T02:54:10;14.95;;;6.47;;
82783;SDS011;72520;55.762;37.780;2023-11-19T02:57:15;16.48;;;6.18;;
82783;SDS011;72520;55.762;37.780;2023-11-19T03:00:21;18.85;;;6.93;;
82783;SDS011;72520;55.762;37.780;2023-11-19T03:03:26;18.52;;;6.78;;
82783;SDS011;72520;55.762;37.780;2023-11-19T03:06:38;22.08;;;7.53;;
82783;SDS011;72520;55.762;37.780;2023-11-19T03:09:41;19.15;;;7.63;;
82783;SDS011;72520;55.762;37.780;2023-11-19T03:12:44;20.10;;;8.32;;
82783;SDS011;72520;55.762;37.780;2023-11-19T03:15:48;28.63;;;8.25;;
82783;SDS011;72520;55.762;37.780;2023-11-19T03:18:52;16.92;;;8.50;;
82783;SDS011;72520;55.762;37.780;2023-11-19T03:22:01;29.00;;;9.45;;
82783;SDS011;72520;55.762;37.780;2023-11-19T03:25:04;26.10;;;8.35;;
82783;SDS011;72520;55.762;37.780;2023-11-19T03:28:09;24.00;;;8.98;;
82783;SDS011;72520;55.762;37.780;2023-11-19T03:31:13;30.35;;;11.98;;
82783;SDS011;72520;55.762;37.780;2023-11-19T03:34:16;28.45;;;10.93;;
82783;SDS011;72520;55.762;37.780;2023-11-19T03:37:18;21.17;;;9.10;;
82783;SDS011;72520;55.762;37.780;2023-11-19T03:40:24;23.73;;;9.20;;
82783;SDS011;72520;55.762;37.780;2023-11-19T03:43:26;20.20;;;9.77;;
82783;SDS011;72520;55.762;37.780;2023-11-19T03:46:30;26.95;;;9.55;;
82783;SDS011;72520;55.762;37.780;2023-11-19T03:49:33;23.88;;;9.07;;
82783;SDS011;72520;55.762;37.780;2023-11-19T03:52:40;27.30;;;9.27;;
82783;SDS011;72520;55.762;37.780;2023-11-19T03:55:42;24.73;;;9.38;;
82783;SDS011;72520;55.762;37.780;2023-11-19T03:58:45;37.20;;;11.02;;
82783;SDS011;72520;55.762;37.780;2023-11-19T04:01:49;21.75;;;10.98;;
82783;SDS011;72520;55.762;37.780;2023-11-19T04:04:52;17.10;;;8.13;;
82783;SDS011;72520;55.762;37.780;2023-11-19T04:07:54;21.17;;;8.65;;
82783;SDS011;72520;55.762;37.780;2023-11-19T04:10:57;21.05;;;8.20;;
82783;SDS011;72520;55.762;37.780;2023-11-19T04:13:59;25.92;;;8.88;;
82783;SDS011;72520;55.762;37.780;2023-11-19T04:17:04;20.70;;;7.88;;
82783;SDS011;72520;55.762;37.780;2023-11-19T04:20:07;19.25;;;8.18;;
82783;SDS011;72520;55.762;37.780;2023-11-19T04:23:13;21.17;;;8.73;;
82783;SDS011;72520;55.762;37.780;2023-11-19T04:26:16;18.58;;;8.82;;
82783;SDS011;72520;55.762;37.780;2023-11-19T04:29:19;18.83;;;7.90;;
82783;SDS011;72520;55.762;37.780;2023-11-19T04:32:23;16.13;;;7.18;;
82783;SDS011;72520;55.762;37.780;2023-11-19T04:35:26;16.35;;;7.15;;
82783;SDS011;72520;55.762;37.780;2023-11-19T04:38:28;24.67;;;8.50;;
82783;SDS011;72520;55.762;37.780;2023-11-19T04:41:31;24.27;;;7.45;;
82783;SDS011;72520;55.762;37.780;2023-11-19T04:44:34;21.13;;;7.72;;
82783;SDS011;72520;55.762;37.780;2023-11-19T04:47:38;19.92;;;8.25;;
82783;SDS011;72520;55.762;37.780;2023-11-19T04:50:41;18.05;;;7.70;;
82783;SDS011;72520;55.762;37.780;2023-11-19T04:53:44;14.05;;;6.95;;
82783;SDS011;72520;55.762;37.780;2023-11-19T04:56:46;20.10;;;7.47;;
82783;SDS011;72520;55.762;37.780;2023-11-19T04:59:49;19.42;;;7.78;;
82783;SDS011;72520;55.762;37.780;2023-11-19T05:02:53;19.52;;;7.90;;
82783;SDS011;72520;55.762;37.780;2023-11-19T05:05:56;18.27;;;6.53;;
82783;SDS011;72520;55.762;37.780;2023-11-19T05:08:59;13.52;;;6.15;;
82783;SDS011;72520;55.762;37.780;2023-11-19T05:12:04;23.15;;;7.90;;
82783;SDS011;72520;55.762;37.780;2023-11-19T05:15:10;19.27;;;7.78;;
82783;SDS011;72520;55.762;37.780;2023-11-19T05:18:15;21.63;;;8.45;;
82783;SDS011;72520;55.762;37.780;2023-11-19T05:21:17;17.58;;;7.60;;
82783;SDS011;72520;55.762;37.780;2023-11-19T05:24:20;22.75;;;10.20;;
82783;SDS011;72520;55.762;37.780;2023-11-19T05:27:22;23.10;;;8.85;;
82783;SDS011;72520;55.762;37.780;2023-11-19T05:30:25;19.13;;;7.53;;
82783;SDS011;72520;55.762;37.780;2023-11-19T05:33:29;21.38;;;8.65;;
82783;SDS011;72520;55.762;37.780;2023-11-19T05:36:32;25.38;;;9.55;;
82783;SDS011;72520;55.762;37.780;2023-11-19T05:39:35;34.47;;;12.60;;
82783;SDS011;72520;55.762;37.780;2023-11-19T05:42:37;27.23;;;11.82;;
82783;SDS011;72520;55.762;37.780;2023-11-19T05:45:40;30.55;;;13.00;;
82783;SDS011;72520;55.762;37.780;2023-11-19T05:48:44;25.60;;;12.05;;
82783;SDS011;72520;55.762;37.780;2023-11-19T05:54:50;46.03;;;16.08;;
82783;SDS011;72520;55.762;37.780;2023-11-19T05:57:53;30.98;;;13.15;;
82783;SDS011;72520;55.762;37.780;2023-11-19T06:00:56;25.23;;;11.38;;
82783;SDS011;72520;55.762;37.780;2023-11-19T06:04:00;29.02;;;12.50;;
82783;SDS011;72520;55.762;37.780;2023-11-19T06:07:03;30.38;;;12.48;;
82783;SDS011;72520;55.762;37.780;2023-11-19T06:10:07;29.00;;;12.95;;
82783;SDS011;72520;55.762;37.780;2023-11-19T06:13:10;25.40;;;12.43;;
82783;SDS011;72520;55.762;37.780;2023-11-19T06:16:15;30.85;;;12.82;;
82783;SDS011;72520;55.762;37.780;2023-11-19T06:19:19;32.88;;;11.50;;
82783;SDS011;72520;55.762;37.780;2023-11-19T06:22:22;30.02;;;12.20;;
82783;SDS011;72520;55.762;37.780;2023-11-19T06:25:25;34.47;;;12.52;;
82783;SDS011;72520;55.762;37.780;2023-11-19T06:28:28;27.33;;;12.93;;
82783;SDS011;72520;55.762;37.780;2023-11-19T06:31:30;30.60;;;14.35;;
82783;SDS011;72520;55.762;37.780;2023-11-19T06:34:37;33.13;;;13.75;;
82783;SDS011;72520;55.762;37.780;2023-11-19T06:37:40;33.95;;;13.63;;
82783;SDS011;72520;55.762;37.780;2023-11-19T06:40:42;36.92;;;12.63;;
82783;SDS011;72520;55.762;37.780;2023-11-19T06:43:45;28.75;;;13.32;;
82783;SDS011;72520;55.762;37.780;2023-11-19T06:46:48;35.38;;;14.05;;
82783;SDS011;72520;55.762;37.780;2023-11-19T06:49:52;31.92;;;15.00;;
82783;SDS011;72520;55.762;37.780;2023-11-19T06:52:55;28.88;;;14.40;;
82783;SDS011;72520;55.762;37.780;2023-11-19T06:56:00;28.90;;;12.68;;
82783;SDS011;72520;55.762;37.780;2023-11-19T06:59:04;32.25;;;13.27;;
82783;SDS011;72520;55.762;37.780;2023-11-19T07:02:06;32.20;;;12.93;;
82783;SDS011;72520;55.762;37.780;2023-11-19T07:05:11;30.95;;;12.85;;
82783;SDS011;72520;55.762;37.780;2023-11-19T07:08:14;32.45;;;12.10;;
82783;SDS011;72520;55.762;37.780;2023-11-19T07:11:16;27.40;;;13.15;;
82783;SDS011;72520;55.762;37.780;2023-11-19T07:14:19;27.75;;;11.48;;
82783;SDS011;72520;55.762;37.780;2023-11-19T07:17:22;19.15;;;9.20;;
82783;SDS011;72520;55.762;37.780;2023-11-19T07:20:26;25.95;;;9.77;;
82783;SDS011;72520;55.762;37.780;2023-11-19T07:23:28;26.33;;;10.18;;
82783;SDS011;72520;55.762;37.780;2023-11-19T07:26:31;23.83;;;9.07;;
82783;SDS011;72520;55.762;37.780;2023-11-19T07:29:34;26.70;;;10.55;;
82783;SDS011;72520;55.762;37.780;2023-11-19T07:32:37;35.60;;;12.60;;
82783;SDS011;72520;55.762;37.780;2023-11-19T07:35:42;28.05;;;12.57;;
82783;SDS011;72520;55.762;37.780;2023-11-19T07:38:45;28.25;;;11.38;;
82783;SDS011;72520;55.762;37.780;2023-11-19T07:41:48;17.30;;;7.85;;
82783;SDS011;72520;55.762;37.780;2023-11-19T07:44:50;21.85;;;8.90;;
82783;SDS011;72520;55.762;37.780;2023-11-19T07:47:55;18.10;;;8.93;;
82783;SDS011;72520;55.762;37.780;2023-11-19T07:50:59;12.65;;;6.57;;
82783;SDS011;72520;55.762;37.780;2023-11-19T07:54:02;11.45;;;5.22;;
82783;SDS011;72520;55.762;37.780;2023-11-19T07:57:06;16.60;;;8.32;;
82783;SDS011;72520;55.762;37.780;2023-11-19T08:00:09;20.98;;;7.47;;
82783;SDS011;72520;55.762;37.780;2023-11-19T08:03:13;20.48;;;7.85;;
82783;SDS011;72520;55.762;37.780;2023-11-19T08:06:17;19.98;;;7.75;;
82783;SDS011;72520;55.762;37.780;2023-11-19T08:09:19;16.92;;;7.75;;
82783;SDS011;72520;55.762;37.780;2023-11-19T08:12:22;20.45;;;8.57;;
82783;SDS011;72520;55.762;37.780;2023-11-19T08:15:25;16.13;;;7.05;;
82783;SDS011;72520;55.762;37.780;2023-11-19T08:18:27;17.35;;;5.70;;
82783;SDS011;72520;55.762;37.780;2023-11-19T08:21:31;14.23;;;6.60;;
82783;SDS011;72520;55.762;37.780;2023-11-19T08:24:35;14.40;;;6.65;;
82783;SDS011;72520;55.762;37.780;2023-11-19T08:27:38;16.30;;;7.25;;
82783;SDS011;72520;55.762;37.780;2023-11-19T08:30:41;20.25;;;7.28;;
82783;SDS011;72520;55.762;37.780;2023-11-19T08:34:00;16.38;;;6.90;;
82783;SDS011;72520;55.762;37.780;2023-11-19T08:37:05;19.85;;;6.60;;
82783;SDS011;72520;55.762;37.780;2023-11-19T08:40:09;15.90;;;6.70;;
82783;SDS011;72520;55.762;37.780;2023-11-19T08:43:13;16.75;;;7.18;;
82783;SDS011;72520;55.762;37.780;2023-11-19T08:46:16;16.05;;;6.78;;
82783;SDS011;72520;55.762;37.780;2023-11-19T08:49:18;15.35;;;7.13;;
82783;SDS011;72520;55.762;37.780;2023-11-19T08:52:22;16.63;;;7.13;;
82783;SDS011;72520;55.762;37.780;2023-11-19T08:55:27;17.83;;;7.20;;
82783;SDS011;72520;55.762;37.780;2023-11-19T08:58:30;15.32;;;7.35;;
82783;SDS011;72520;55.762;37.780;2023-11-19T09:01:34;16.92;;;6.95;;
82783;SDS011;72520;55.762;37.780;2023-11-19T09:04:37;21.25;;;7.25;;
82783;SDS011;72520;55.762;37.780;2023-11-19T09:07:41;16.70;;;7.80;;
82783;SDS011;72520;55.762;37.780;2023-11-19T09:10:43;15.45;;;8.38;;
82783;SDS011;72520;55.762;37.780;2023-11-19T09:13:46;13.52;;;7.25;;
82783;SDS011;72520;55.762;37.780;2023-11-19T09:16:49;19.38;;;8.35;;
82783;SDS011;72520;55.762;37.780;2023-11-19T09:19:51;17.67;;;7.75;;
82783;SDS011;72520;55.762;37.780;2023-11-19T09:22:56;20.23;;;6.00;;
82783;SDS011;72520;55.762;37.780;2023-11-19T09:25:59;13.02;;;6.40;;
82783;SDS011;72520;55.762;37.780;2023-11-19T09:29:02;16.90;;;5.80;;
82783;SDS011;72520;55.762;37.780;2023-11-19T09:32:05;16.63;;;7.10;;
82783;SDS011;72520;55.762;37.780;2023-11-19T09:35:08;14.32;;;6.80;;
82783;SDS011;72520;55.762;37.780;2023-11-19T09:38:15;15.00;;;5.72;;
82783;SDS011;72520;55.762;37.780;2023-11-19T09:41:18;15.73;;;6.70;;
82783;SDS011;72520;55.762;37.780;2023-11-19T09:44:21;13.48;;;5.97;;
82783;SDS011;72520;55.762;37.780;2023-11-19T09:47:23;10.38;;;4.53;;
82783;SDS011;72520;55.762;37.780;2023-11-19T09:50:30;9.43;;;4.45;;
82783;SDS011;72520;55.762;37.780;2023-11-19T09:53:35;10.43;;;4.60;;
82783;SDS011;72520;55.762;37.780;2023-11-19T09:56:38;7.20;;;4.57;;
82783;SDS011;72520;55.762;37.780;2023-11-19T09:59:41;11.98;;;5.25;;
82783;SDS011;72520;55.762;37.780;2023-11-19T10:02:46;11.98;;;5.40;;
82783;SDS011;72520;55.762;37.780;2023-11-19T10:05:50;16.83;;;6.35;;
82783;SDS011;72520;55.762;37.780;2023-11-19T10:08:54;11.68;;;5.47;;
82783;SDS011;72520;55.762;37.780;2023-11-19T10:11:57;15.88;;;5.30;;
82783;SDS011;72520;55.762;37.780;2023-11-19T10:15:00;10.63;;;3.80;;
82783;SDS011;72520;55.762;37.780;2023-11-19T10:18:10;9.15;;;4.40;;
82783;SDS011;72520;55.762;37.780;2023-11-19T10:21:12;14.90;;;5.88;;
82783;SDS011;72520;55.762;37.780;2023-11-19T10:24:23;13.10;;;5.72;;
82783;SDS011;72520;55.762;37.780;2023-11-19T10:27:34;8.32;;;4.15;;
82783;SDS011;72520;55.762;37.780;2023-11-19T10:30:37;12.50;;;3.95;;
82783;SDS011;72520;55.762;37.780;2023-11-19T10:33:40;6.20;;;3.38;;
82783;SDS011;72520;55.762;37.780;2023-11-19T10:36:43;12.57;;;5.05;;
82783;SDS011;72520;55.762;37.780;2023-11-19T10:39:53;14.05;;;5.47;;
82783;SDS011;72520;55.762;37.780;2023-11-19T10:43:01;21.55;;;5.18;;
82783;SDS011;72520;55.762;37.780;2023-11-19T10:46:11;11.82;;;5.97;;
82783;SDS011;72520;55.762;37.780;2023-11-19T10:49:15;13.85;;;4.65;;
82783;SDS011;72520;55.762;37.780;2023-11-19T10:52:17;14.25;;;6.43;;
82783;SDS011;72520;55.762;37.780;2023-11-19T10:55:23;12.45;;;5.55;;
82783;SDS011;72520;55.762;37.780;2023-11-19T10:58:29;10.25;;;5.32;;
82783;SDS011;72520;55.762;37.780;2023-11-19T11:01:43;13.63;;;6.18;;
82783;SDS011;72520;55.762;37.780;2023-11-19T11:04:52;10.70;;;5.07;;
82783;SDS011;72520;55.762;37.780;2023-11-19T11:07:57;11.00;;;5.88;;
82783;SDS011;72520;55.762;37.780;2023-11-19T11:11:03;12.48;;;5.07;;
82783;SDS011;72520;55.762;37.780;2023-11-19T11:14:08;6.40;;;3.78;;
82783;SDS011;72520;55.762;37.780;2023-11-19T11:17:14;21.60;;;6.65;;
82783;SDS011;72520;55.762;37.780;2023-11-19T11:20:20;14.10;;;6.57;;
82783;SDS011;72520;55.762;37.780;2023-11-19T11:23:29;23.60;;;9.32;;
82783;SDS011;72520;55.762;37.780;2023-11-19T11:30:44;13.73;;;6.18;;
82783;SDS011;72520;55.762;37.780;2023-11-19T11:34:02;17.30;;;7.70;;
82783;SDS011;72520;55.762;37.780;2023-11-19T11:37:18;16.60;;;7.35;;
82783;SDS011;72520;55.762;37.780;2023-11-19T11:40:27;13.13;;;6.78;;
82783;SDS011;72520;55.762;37.780;2023-11-19T11:46:55;14.63;;;6.53;;
82783;SDS011;72520;55.762;37.780;2023-11-19T11:50:00;13.27;;;5.72;;
82783;SDS011;72520;55.762;37.780;2023-11-19T11:53:19;20.35;;;7.40;;
82783;SDS011;72520;55.762;37.780;2023-11-19T11:56:32;16.60;;;6.22;;
82783;SDS011;72520;55.762;37.780;2023-11-19T11:59:48;13.68;;;6.50;;
82783;SDS011;72520;55.762;37.780;2023-11-19T12:02:55;12.40;;;6.40;;
82783;SDS011;72520;55.762;37.780;2023-11-19T12:05:59;11.43;;;5.72;;
82783;SDS011;72520;55.762;37.780;2023-11-19T12:09:02;13.48;;;6.93;;
82783;SDS011;72520;55.762;37.780;2023-11-19T12:12:12;16.33;;;7.00;;
82783;SDS011;72520;55.762;37.780;2023-11-19T12:15:20;13.18;;;5.25;;
82783;SDS011;72520;55.762;37.780;2023-11-19T12:18:27;16.02;;;5.93;;
82783;SDS011;72520;55.762;37.780;2023-11-19T12:21:31;13.68;;;6.05;;
82783;SDS011;72520;55.762;37.780;2023-11-19T12:24:35;17.98;;;6.15;;
82783;SDS011;72520;55.762;37.780;2023-11-19T12:27:39;20.38;;;7.15;;
82783;SDS011;72520;55.762;37.780;2023-11-19T12:30:42;15.80;;;7.13;;
82783;SDS011;72520;55.762;37.780;2023-11-19T12:33:46;12.20;;;5.97;;
82783;SDS011;72520;55.762;37.780;2023-11-19T12:36:49;15.52;;;6.00;;
82783;SDS011;72520;55.762;37.780;2023-11-19T12:39:52;14.32;;;6.63;;
82783;SDS011;72520;55.762;37.780;2023-11-19T12:42:55;23.17;;;7.95;;
82783;SDS011;72520;55.762;37.780;2023-11-19T12:45:57;16.58;;;7.72;;
82783;SDS011;72520;55.762;37.780;2023-11-19T12:49:01;12.73;;;5.05;;
82783;SDS011;72520;55.762;37.780;2023-11-19T12:52:11;10.98;;;5.70;;
82783;SDS011;72520;55.762;37.780;2023-11-19T12:55:24;13.88;;;6.75;;
82783;SDS011;72520;55.762;37.780;2023-11-19T12:58:28;12.52;;;6.03;;
82783;SDS011;72520;55.762;37.780;2023-11-19T13:01:31;17.85;;;7.53;;
82783;SDS011;72520;55.762;37.780;2023-11-19T13:04:38;17.58;;;8.00;;
82783;SDS011;72520;55.762;37.780;2023-11-19T13:07:41;12.07;;;6.63;;
82783;SDS011;72520;55.762;37.780;2023-11-19T13:10:50;16.05;;;8.02;;
82783;SDS011;72520;55.762;37.780;2023-11-19T13:13:54;18.40;;;6.15;;
82783;SDS011;72520;55.762;37.780;2023-11-19T13:16:58;12.88;;;5.47;;
82783;SDS011;72520;55.762;37.780;2023-11-19T13:20:02;14.48;;;6.28;;
82783;SDS011;72520;55.762;37.780;2023-11-19T13:23:05;28.80;;;11.15;;
82783;SDS011;72520;55.762;37.780;2023-11-19T13:26:09;17.00;;;6.03;;
82783;SDS011;72520;55.762;37.780;2023-11-19T13:29:12;19.60;;;7.07;;
82783;SDS011;72520;55.762;37.780;2023-11-19T13:32:20;16.80;;;6.65;;
82783;SDS011;72520;55.762;37.780;2023-11-19T13:35:24;17.17;;;7.57;;
82783;SDS011;72520;55.762;37.780;2023-11-19T13:38:28;15.73;;;6.60;;
82783;SDS011;72520;55.762;37.780;2023-11-19T13:41:31;15.13;;;6.97;;
82783;SDS011;72520;55.762;37.780;2023-11-19T13:44:34;16.58;;;7.82;;
82783;SDS011;72520;55.762;37.780;2023-11-19T13:47:36;13.60;;;6.20;;
82783;SDS011;72520;55.762;37.780;2023-11-19T13:50:43;14.95;;;6.72;;
82783;SDS011;72520;55.762;37.780;2023-11-19T13:53:46;21.17;;;8.63;;
82783;SDS011;72520;55.762;37.780;2023-11-19T13:56:48;12.80;;;6.78;;
82783;SDS011;72520;55.762;37.780;2023-11-19T13:59:55;16.42;;;6.03;;
82783;SDS011;72520;55.762;37.780;2023-11-19T14:02:58;14.43;;;5.68;;
82783;SDS011;72520;55.762;37.780;2023-11-19T14:06:02;14.63;;;5.50;;
82783;SDS011;72520;55.762;37.780;2023-11-19T14:09:06;11.85;;;5.68;;
82783;SDS011;72520;55.762;37.780;2023-11-19T14:12:08;14.60;;;6.00;;
82783;SDS011;72520;55.762;37.780;2023-11-19T14:15:13;16.63;;;6.10;;
82783;SDS011;72520;55.762;37.780;2023-11-19T14:18:18;14.48;;;7.03;;
82783;SDS011;72520;55.762;37.780;2023-11-19T14:21:22;10.48;;;5.13;;
82783;SDS011;72520;55.762;37.780;2023-11-19T14:24:26;15.20;;;6.72;;
82783;SDS011;72520;55.762;37.780;2023-11-19T14:27:30;11.98;;;6.20;;
82783;SDS011;72520;55.762;37.780;2023-11-19T14:30:32;11.68;;;5.78;;
82783;SDS011;72520;55.762;37.780;2023-11-19T14:33:35;20.80;;;5.68;;
82783;SDS011;72520;55.762;37.780;2023-11-19T14:36:40;9.85;;;5.03;;
82783;SDS011;72520;55.762;37.780;2023-11-19T14:39:43;14.32;;;6.60;;
82783;SDS011;72520;55.762;37.780;2023-11-19T14:42:46;12.70;;;5.50;;
82783;SDS011;72520;55.762;37.780;2023-11-19T14:45:49;15.02;;;5.85;;
82783;SDS011;72520;55.762;37.780;2023-11-19T14:48:52;12.77;;;5.78;;
82783;SDS011;72520;55.762;37.780;2023-11-19T14:51:56;10.00;;;5.00;;
82783;SDS011;72520;55.762;37.780;2023-11-19T14:54:58;16.75;;;6.05;;
82783;SDS011;72520;55.762;37.780;2023-11-19T14:58:01;13.75;;;6.03;;
82783;SDS011;72520;55.762;37.780;2023-11-19T15:01:05;15.18;;;6.30;;
82783;SDS011;72520;55.762;37.780;2023-11-19T15:04:08;17.20;;;7.05;;
82783;SDS011;72520;55.762;37.780;2023-11-19T15:07:12;22.60;;;5.53;;
82783;SDS011;72520;55.762;37.780;2023-11-19T15:10:15;34.28;;;8.15;;
82783;SDS011;72520;55.762;37.780;2023-11-19T15:13:17;13.65;;;5.55;;
82783;SDS011;72520;55.762;37.780;2023-11-19T15:16:20;15.15;;;8.10;;
82783;SDS011;72520;55.762;37.780;2023-11-19T15:19:31;22.55;;;6.70;;
82783;SDS011;72520;55.762;37.780;2023-11-19T15:22:36;13.77;;;6.10;;
82783;SDS011;72520;55.762;37.780;2023-11-19T15:25:39;18.88;;;7.53;;
82783;SDS011;72520;55.762;37.780;2023-11-19T15:28:41;15.75;;;7.15;;
82783;SDS011;72520;55.762;37.780;2023-11-19T15:31:44;16.73;;;8.07;;
82783;SDS011;72520;55.762;37.780;2023-11-19T15:34:47;17.83;;;8.23;;
82783;SDS011;72520;55.762;37.780;2023-11-19T15:37:51;12.70;;;6.35;;
82783;SDS011;72520;55.762;37.780;2023-11-19T15:40:53;15.95;;;6.68;;
82783;SDS011;72520;55.762;37.780;2023-11-19T15:43:56;18.75;;;8.30;;
82783;SDS011;72520;55.762;37.780;2023-11-19T15:46:59;13.93;;;5.85;;
82783;SDS011;72520;55.762;37.780;2023-11-19T15:50:01;20.15;;;9.43;;
82783;SDS011;72520;55.762;37.780;2023-11-19T15:53:06;24.70;;;11.10;;
82783;SDS011;72520;55.762;37.780;2023-11-19T15:56:09;18.02;;;8.38;;
82783;SDS011;72520;55.762;37.780;2023-11-19T15:59:11;19.05;;;8.60;;
82783;SDS011;72520;55.762;37.780;2023-11-19T16:02:14;22.27;;;9.75;;
82783;SDS011;72520;55.762;37.780;2023-11-19T16:05:17;21.02;;;9.52;;
82783;SDS011;72520;55.762;37.780;2023-11-19T16:08:22;19.88;;;9.80;;
82783;SDS011;72520;55.762;37.780;2023-11-19T16:11:25;27.13;;;9.60;;
82783;SDS011;72520;55.762;37.780;2023-11-19T16:14:28;22.02;;;10.60;;
82783;SDS011;72520;55.762;37.780;2023-11-19T16:17:30;28.40;;;12.02;;
82783;SDS011;72520;55.762;37.780;2023-11-19T16:20:35;23.42;;;11.43;;
82783;SDS011;72520;55.762;37.780;2023-11-19T16:23:39;28.48;;;13.30;;
82783;SDS011;72520;55.762;37.780;2023-11-19T16:26:41;26.35;;;11.65;;
82783;SDS011;72520;55.762;37.780;2023-11-19T16:29:44;30.35;;;12.85;;
82783;SDS011;72520;55.762;37.780;2023-11-19T16:32:51;32.08;;;13.70;;
82783;SDS011;72520;55.762;37.780;2023-11-19T16:35:55;26.50;;;11.00;;
82783;SDS011;72520;55.762;37.780;2023-11-19T16:39:01;24.45;;;10.90;;
82783;SDS011;72520;55.762;37.780;2023-11-19T16:42:04;27.20;;;10.75;;
82783;SDS011;72520;55.762;37.780;2023-11-19T16:45:08;24.33;;;9.95;;
82783;SDS011;72520;55.762;37.780;2023-11-19T16:48:11;22.00;;;10.73;;
82783;SDS011;72520;55.762;37.780;2023-11-19T16:51:14;22.17;;;11.60;;
82783;SDS011;72520;55.762;37.780;2023-11-19T16:54:19;29.40;;;11.50;;
82783;SDS011;72520;55.762;37.780;2023-11-19T16:57:22;21.40;;;9.55;;
82783;SDS011;72520;55.762;37.780;2023-11-19T17:00:25;28.73;;;12.10;;
82783;SDS011;72520;55.762;37.780;2023-11-19T17:03:27;22.92;;;9.57;;
82783;SDS011;72520;55.762;37.780;2023-11-19T17:06:30;24.20;;;11.20;;
82783;SDS011;72520;55.762;37.780;2023-11-19T17:09:36;31.85;;;13.05;;
82783;SDS011;72520;55.762;37.780;2023-11-19T17:12:39;33.33;;;15.35;;
82783;SDS011;72520;55.762;37.780;2023-11-19T17:15:42;31.98;;;12.00;;
82783;SDS011;72520;55.762;37.780;2023-11-19T17:18:45;29.15;;;12.32;;
82783;SDS011;72520;55.762;37.780;2023-11-19T17:21:47;26.77;;;11.30;;
82783;SDS011;72520;55.762;37.780;2023-11-19T17:24:51;25.17;;;11.32;;
82783;SDS011;72520;55.762;37.780;2023-11-19T17:27:54;22.52;;;10.18;;
82783;SDS011;72520;55.762;37.780;2023-11-19T17:30:59;26.30;;;11.32;;
82783;SDS011;72520;55.762;37.780;2023-11-19T17:34:01;25.05;;;12.45;;
82783;SDS011;72520;55.762;37.780;2023-11-19T17:37:06;26.48;;;11.13;;
82783;SDS011;72520;55.762;37.780;2023-11-19T17:40:11;40.00;;;12.10;;
82783;SDS011;72520;55.762;37.780;2023-11-19T17:43:17;30.00;;;13.55;;
82783;SDS011;72520;55.762;37.780;2023-11-19T17:46:19;32.90;;;13.15;;
82783;SDS011;72520;55.762;37.780;2023-11-19T17:49:22;28.10;;;9.82;;
82783;SDS011;72520;55.762;37.780;2023-11-19T17:52:25;29.58;;;10.98;;
82783;SDS011;72520;55.762;37.780;2023-11-19T17:55:29;24.27;;;11.45;;
82783;SDS011;72520;55.762;37.780;2023-11-19T17:58:32;32.85;;;12.88;;
82783;SDS011;72520;55.762;37.780;2023-11-19T18:01:38;27.77;;;11.85;;
82783;SDS011;72520;55.762;37.780;2023-11-19T18:04:44;23.75;;;11.35;;
82783;SDS011;72520;55.762;37.780;2023-11-19T18:07:48;26.35;;;11.02;;